Terminal Aerodrome Forecast
Issued by NWS

Home | Current Version | Previous Version | Text Only | Print | Product List | Glossary On
Versions: 1 2 3 4 5 6 7 8 9 10 11 12 13 14
000
FTAK31 PANC 250542
TAFATK
TAF
PATK 250542Z 2506/2606 19006KT P6SM FEW025 OVC050
     FM251500 20004KT P6SM -RA SCT015 OVC025
     FM252200 21007KT P6SM BKN040=

USA.gov is the U.S. government's official web portal to all federal, state and local government web resources and services.